sensor_id;sensor_type;location;lat;lon;timestamp;P1;durP1;ratioP1;P2;durP2;ratioP2
38252;SDS011;24785;52.372;20.672;2022-08-19T00:03:30;24.77;;;15.68;;
38252;SDS011;24785;52.372;20.672;2022-08-19T00:13:31;18.52;;;11.38;;
38252;SDS011;24785;52.372;20.672;2022-08-19T00:23:32;17.25;;;12.55;;
38252;SDS011;24785;52.372;20.672;2022-08-19T00:33:35;16.35;;;11.77;;
38252;SDS011;24785;52.372;20.672;2022-08-19T00:43:37;23.30;;;12.83;;
38252;SDS011;24785;52.372;20.672;2022-08-19T00:53:39;22.70;;;14.17;;
38252;SDS011;24785;52.372;20.672;2022-08-19T01:03:40;15.05;;;10.07;;
38252;SDS011;24785;52.372;20.672;2022-08-19T01:13:40;11.52;;;9.32;;
38252;SDS011;24785;52.372;20.672;2022-08-19T01:23:42;30.50;;;16.38;;
38252;SDS011;24785;52.372;20.672;2022-08-19T01:33:44;16.70;;;10.23;;
38252;SDS011;24785;52.372;20.672;2022-08-19T01:43:45;26.48;;;16.23;;
38252;SDS011;24785;52.372;20.672;2022-08-19T01:53:47;21.85;;;14.57;;
38252;SDS011;24785;52.372;20.672;2022-08-19T02:03:48;28.50;;;18.30;;
38252;SDS011;24785;52.372;20.672;2022-08-19T02:13:49;24.48;;;17.38;;
38252;SDS011;24785;52.372;20.672;2022-08-19T02:23:50;31.30;;;19.13;;
38252;SDS011;24785;52.372;20.672;2022-08-19T02:33:51;28.58;;;17.80;;
38252;SDS011;24785;52.372;20.672;2022-08-19T02:43:54;31.00;;;18.23;;
38252;SDS011;24785;52.372;20.672;2022-08-19T02:53:55;30.20;;;17.85;;
38252;SDS011;24785;52.372;20.672;2022-08-19T03:03:58;33.13;;;18.88;;
38252;SDS011;24785;52.372;20.672;2022-08-19T03:14:00;28.05;;;16.02;;
38252;SDS011;24785;52.372;20.672;2022-08-19T03:24:03;25.90;;;16.50;;
38252;SDS011;24785;52.372;20.672;2022-08-19T03:34:07;24.20;;;15.30;;
38252;SDS011;24785;52.372;20.672;2022-08-19T03:44:08;27.83;;;15.32;;
38252;SDS011;24785;52.372;20.672;2022-08-19T03:54:10;27.08;;;16.15;;
38252;SDS011;24785;52.372;20.672;2022-08-19T04:04:13;30.88;;;15.00;;
38252;SDS011;24785;52.372;20.672;2022-08-19T04:14:15;22.95;;;14.73;;
38252;SDS011;24785;52.372;20.672;2022-08-19T04:24:19;20.58;;;14.05;;
38252;SDS011;24785;52.372;20.672;2022-08-19T04:34:21;24.60;;;14.07;;
38252;SDS011;24785;52.372;20.672;2022-08-19T04:44:23;21.15;;;12.93;;
38252;SDS011;24785;52.372;20.672;2022-08-19T04:54:24;23.35;;;12.57;;
38252;SDS011;24785;52.372;20.672;2022-08-19T05:04:26;18.00;;;10.65;;
38252;SDS011;24785;52.372;20.672;2022-08-19T05:14:31;32.58;;;11.43;;
38252;SDS011;24785;52.372;20.672;2022-08-19T05:24:32;21.20;;;10.97;;
38252;SDS011;24785;52.372;20.672;2022-08-19T05:44:37;19.95;;;10.48;;
38252;SDS011;24785;52.372;20.672;2022-08-19T05:54:40;22.25;;;10.35;;
38252;SDS011;24785;52.372;20.672;2022-08-19T06:04:41;15.73;;;9.50;;
38252;SDS011;24785;52.372;20.672;2022-08-19T06:14:45;18.58;;;11.13;;
38252;SDS011;24785;52.372;20.672;2022-08-19T06:24:46;26.97;;;10.03;;
38252;SDS011;24785;52.372;20.672;2022-08-19T06:34:47;20.00;;;9.93;;
38252;SDS011;24785;52.372;20.672;2022-08-19T06:44:48;13.77;;;7.63;;
38252;SDS011;24785;52.372;20.672;2022-08-19T06:54:49;13.77;;;7.40;;
38252;SDS011;24785;52.372;20.672;2022-08-19T07:04:50;19.50;;;7.33;;
38252;SDS011;24785;52.372;20.672;2022-08-19T07:14:51;12.88;;;6.68;;
38252;SDS011;24785;52.372;20.672;2022-08-19T07:24:53;14.00;;;7.80;;
38252;SDS011;24785;52.372;20.672;2022-08-19T07:34:54;13.40;;;6.33;;
38252;SDS011;24785;52.372;20.672;2022-08-19T07:44:55;14.20;;;6.88;;
38252;SDS011;24785;52.372;20.672;2022-08-19T08:04:57;12.63;;;6.80;;
38252;SDS011;24785;52.372;20.672;2022-08-19T08:15:17;11.07;;;6.40;;
38252;SDS011;24785;52.372;20.672;2022-08-19T08:25:21;14.95;;;6.30;;
38252;SDS011;24785;52.372;20.672;2022-08-19T08:35:23;13.82;;;7.25;;
38252;SDS011;24785;52.372;20.672;2022-08-19T08:45:25;17.80;;;7.05;;
38252;SDS011;24785;52.372;20.672;2022-08-19T08:55:27;14.95;;;7.15;;
38252;SDS011;24785;52.372;20.672;2022-08-19T09:05:33;13.40;;;5.85;;
38252;SDS011;24785;52.372;20.672;2022-08-19T09:15:51;12.07;;;6.50;;
38252;SDS011;24785;52.372;20.672;2022-08-19T09:25:58;11.93;;;6.70;;
38252;SDS011;24785;52.372;20.672;2022-08-19T09:36:03;14.73;;;6.82;;
38252;SDS011;24785;52.372;20.672;2022-08-19T09:46:08;12.73;;;7.20;;
38252;SDS011;24785;52.372;20.672;2022-08-19T09:56:10;18.15;;;7.47;;
38252;SDS011;24785;52.372;20.672;2022-08-19T10:06:11;10.82;;;7.68;;
38252;SDS011;24785;52.372;20.672;2022-08-19T10:16:17;12.35;;;6.60;;
38252;SDS011;24785;52.372;20.672;2022-08-19T10:26:30;16.80;;;6.50;;
38252;SDS011;24785;52.372;20.672;2022-08-19T10:36:34;11.40;;;6.72;;
38252;SDS011;24785;52.372;20.672;2022-08-19T10:46:38;11.05;;;6.20;;
38252;SDS011;24785;52.372;20.672;2022-08-19T10:56:42;13.18;;;5.68;;
38252;SDS011;24785;52.372;20.672;2022-08-19T11:06:51;9.47;;;5.70;;
38252;SDS011;24785;52.372;20.672;2022-08-19T11:16:52;13.50;;;6.05;;
38252;SDS011;24785;52.372;20.672;2022-08-19T11:27:01;9.45;;;5.30;;
38252;SDS011;24785;52.372;20.672;2022-08-19T11:37:06;12.25;;;6.00;;
38252;SDS011;24785;52.372;20.672;2022-08-19T11:47:08;10.65;;;5.60;;
38252;SDS011;24785;52.372;20.672;2022-08-19T11:57:09;12.68;;;5.40;;
38252;SDS011;24785;52.372;20.672;2022-08-19T12:07:10;10.20;;;6.13;;
38252;SDS011;24785;52.372;20.672;2022-08-19T12:17:12;11.90;;;6.03;;
38252;SDS011;24785;52.372;20.672;2022-08-19T12:27:13;13.73;;;6.20;;
38252;SDS011;24785;52.372;20.672;2022-08-19T12:37:14;14.30;;;6.18;;
38252;SDS011;24785;52.372;20.672;2022-08-19T12:47:17;13.00;;;5.43;;
38252;SDS011;24785;52.372;20.672;2022-08-19T12:57:19;11.23;;;6.20;;
38252;SDS011;24785;52.372;20.672;2022-08-19T13:07:20;9.30;;;5.55;;
38252;SDS011;24785;52.372;20.672;2022-08-19T13:17:21;15.88;;;5.45;;
38252;SDS011;24785;52.372;20.672;2022-08-19T13:27:23;11.75;;;5.80;;
38252;SDS011;24785;52.372;20.672;2022-08-19T13:37:24;11.48;;;5.43;;
38252;SDS011;24785;52.372;20.672;2022-08-19T13:47:45;12.80;;;5.63;;
38252;SDS011;24785;52.372;20.672;2022-08-19T13:57:54;9.88;;;5.60;;
38252;SDS011;24785;52.372;20.672;2022-08-19T14:07:57;11.85;;;6.00;;
38252;SDS011;24785;52.372;20.672;2022-08-19T14:17:59;12.77;;;5.55;;
38252;SDS011;24785;52.372;20.672;2022-08-19T14:28:00;15.27;;;4.93;;
38252;SDS011;24785;52.372;20.672;2022-08-19T14:38:02;16.02;;;5.15;;
38252;SDS011;24785;52.372;20.672;2022-08-19T14:48:05;12.98;;;5.75;;
38252;SDS011;24785;52.372;20.672;2022-08-19T14:58:07;11.30;;;5.45;;
38252;SDS011;24785;52.372;20.672;2022-08-19T15:08:09;11.23;;;4.90;;
38252;SDS011;24785;52.372;20.672;2022-08-19T15:18:10;11.68;;;5.18;;
38252;SDS011;24785;52.372;20.672;2022-08-19T15:28:11;11.35;;;4.90;;
38252;SDS011;24785;52.372;20.672;2022-08-19T15:38:12;7.35;;;4.50;;
38252;SDS011;24785;52.372;20.672;2022-08-19T15:48:14;19.77;;;5.13;;
38252;SDS011;24785;52.372;20.672;2022-08-19T15:58:15;17.10;;;4.72;;
38252;SDS011;24785;52.372;20.672;2022-08-19T16:08:34;8.83;;;4.07;;
38252;SDS011;24785;52.372;20.672;2022-08-19T16:18:35;15.18;;;4.72;;
38252;SDS011;24785;52.372;20.672;2022-08-19T16:28:37;17.38;;;4.00;;
38252;SDS011;24785;52.372;20.672;2022-08-19T16:38:39;13.40;;;5.25;;
38252;SDS011;24785;52.372;20.672;2022-08-19T16:48:39;12.65;;;4.38;;
38252;SDS011;24785;52.372;20.672;2022-08-19T16:58:42;10.48;;;4.82;;
38252;SDS011;24785;52.372;20.672;2022-08-19T17:08:43;9.93;;;4.38;;
38252;SDS011;24785;52.372;20.672;2022-08-19T17:18:44;17.05;;;5.95;;
38252;SDS011;24785;52.372;20.672;2022-08-19T17:38:51;9.02;;;4.72;;
38252;SDS011;24785;52.372;20.672;2022-08-19T17:48:56;10.43;;;4.97;;
38252;SDS011;24785;52.372;20.672;2022-08-19T17:58:57;9.65;;;5.45;;
38252;SDS011;24785;52.372;20.672;2022-08-19T18:08:58;9.23;;;5.23;;
38252;SDS011;24785;52.372;20.672;2022-08-19T18:18:59;12.97;;;4.60;;
38252;SDS011;24785;52.372;20.672;2022-08-19T18:29:00;10.65;;;4.40;;
38252;SDS011;24785;52.372;20.672;2022-08-19T18:39:01;6.45;;;4.30;;
38252;SDS011;24785;52.372;20.672;2022-08-19T18:49:24;11.77;;;4.87;;
38252;SDS011;24785;52.372;20.672;2022-08-19T18:59:27;11.63;;;4.25;;
38252;SDS011;24785;52.372;20.672;2022-08-19T19:09:28;13.32;;;4.85;;
38252;SDS011;24785;52.372;20.672;2022-08-19T19:19:30;6.77;;;4.23;;
38252;SDS011;24785;52.372;20.672;2022-08-19T19:29:31;13.65;;;4.70;;
38252;SDS011;24785;52.372;20.672;2022-08-19T19:39:35;13.00;;;5.53;;
38252;SDS011;24785;52.372;20.672;2022-08-19T19:49:36;11.60;;;6.50;;
38252;SDS011;24785;52.372;20.672;2022-08-19T19:59:40;15.98;;;7.95;;
38252;SDS011;24785;52.372;20.672;2022-08-19T20:09:41;9.13;;;5.20;;
38252;SDS011;24785;52.372;20.672;2022-08-19T20:29:44;10.40;;;5.50;;
38252;SDS011;24785;52.372;20.672;2022-08-19T20:39:45;11.07;;;4.63;;
38252;SDS011;24785;52.372;20.672;2022-08-19T20:49:46;12.37;;;4.43;;
38252;SDS011;24785;52.372;20.672;2022-08-19T20:59:46;10.57;;;4.37;;
38252;SDS011;24785;52.372;20.672;2022-08-19T21:09:47;9.47;;;3.80;;
38252;SDS011;24785;52.372;20.672;2022-08-19T21:19:48;11.07;;;3.77;;
38252;SDS011;24785;52.372;20.672;2022-08-19T21:29:49;13.77;;;3.80;;
38252;SDS011;24785;52.372;20.672;2022-08-19T21:39:51;8.55;;;4.10;;
38252;SDS011;24785;52.372;20.672;2022-08-19T21:49:53;19.75;;;4.70;;
38252;SDS011;24785;52.372;20.672;2022-08-19T21:59:54;9.77;;;3.60;;
38252;SDS011;24785;52.372;20.672;2022-08-19T22:09:55;9.47;;;3.57;;
38252;SDS011;24785;52.372;20.672;2022-08-19T22:19:56;8.30;;;3.47;;
38252;SDS011;24785;52.372;20.672;2022-08-19T22:39:58;12.67;;;3.63;;
38252;SDS011;24785;52.372;20.672;2022-08-19T22:50:00;9.00;;;3.80;;
38252;SDS011;24785;52.372;20.672;2022-08-19T23:00:03;6.50;;;3.65;;
38252;SDS011;24785;52.372;20.672;2022-08-19T23:10:08;8.10;;;4.32;;
38252;SDS011;24785;52.372;20.672;2022-08-19T23:20:11;9.93;;;3.90;;
38252;SDS011;24785;52.372;20.672;2022-08-19T23:30:14;11.32;;;4.30;;
38252;SDS011;24785;52.372;20.672;2022-08-19T23:40:27;11.32;;;4.03;;
38252;SDS011;24785;52.372;20.672;2022-08-19T23:50:28;7.57;;;4.67;;
